Time;durP1;ratioP1;P1;durP2;ratioP2;P2;SDS_P1;SDS_P2;PMS_P1;PMS_P2;Temp;Humidity;BMP_temperature;BMP_pressure;BME280_temperature;BME280_humidity;BME280_pressure;Samples;Min_cycle;Max_cycle;Signal;HPM_P1;HPM_P2
2022/01/12 00:01:06;;;;;;;51.45;31.60;;;26.00;2201.60;;;;;;4996693;28;20022;-91
2022/01/12 00:03:33;;;;;;;62.55;34.95;;;26.00;2201.60;;;;;;4996367;28;20033;-89
2022/01/12 00:06:01;;;;;;;63.45;35.22;;;26.00;2201.60;;;;;;4996893;28;20060;-89
2022/01/12 00:08:27;;;;;;;73.18;36.53;;;26.00;2201.60;;;;;;4996314;28;20145;-88
2022/01/12 00:10:52;;;;;;;106.50;48.30;;;26.10;2201.60;;;;;;4996482;28;20057;-91
2022/01/12 00:13:18;;;;;;;84.55;45.70;;;26.10;2201.60;;;;;;4996321;28;20030;-91
2022/01/12 00:15:44;;;;;;;83.78;46.95;;;26.00;2201.60;;;;;;5006123;28;20017;-88
2022/01/12 00:18:10;;;;;;;73.75;43.78;;;26.00;2201.60;;;;;;5015723;28;20029;-87
2022/01/12 00:20:36;;;;;;;50.67;29.80;;;25.90;2201.60;;;;;;5017870;28;20075;-87
2022/01/12 00:23:02;;;;;;;40.38;25.63;;;25.90;2201.60;;;;;;5019881;28;20452;-87
2022/01/12 00:25:31;;;;;;;36.95;21.73;;;25.90;2201.60;;;;;;5019356;28;20022;-87
2022/01/12 00:33:26;;;;;;;43.72;27.45;;;26.00;2201.60;;;;;;5037491;28;20033;-85
2022/01/12 00:35:54;;;;;;;30.75;18.92;;;26.00;2201.60;;;;;;5020502;28;20017;-86
2022/01/12 00:38:23;;;;;;;28.92;18.52;;;25.90;2201.60;;;;;;5020198;28;20021;-92
2022/01/12 00:40:53;;;;;;;28.63;17.58;;;25.90;2201.60;;;;;;5020102;28;20032;-87
2022/01/12 00:43:21;;;;;;;29.70;17.27;;;25.90;2201.60;;;;;;5020027;28;20108;-88
2022/01/12 00:45:47;;;;;;;27.27;16.63;;;25.90;2201.60;;;;;;5037617;28;20037;-87
2022/01/12 00:48:17;;;;;;;27.35;17.45;;;25.80;2201.60;;;;;;5019868;28;20031;-91
2022/01/12 00:50:45;;;;;;;34.50;20.90;;;25.80;2201.60;;;;;;5019903;28;20519;-88
2022/01/12 00:53:11;;;;;;;38.03;21.15;;;25.80;2201.60;;;;;;5019950;28;20075;-88
2022/01/12 00:55:37;;;;;;;34.17;19.40;;;25.80;2201.60;;;;;;5019786;28;20026;-88
2022/01/12 00:58:03;;;;;;;31.52;16.83;;;25.80;2201.60;;;;;;5019967;28;20029;-91
2022/01/12 01:00:30;;;;;;;25.63;17.05;;;25.80;2201.60;;;;;;5019673;28;20025;-88
2022/01/12 01:02:57;;;;;;;30.48;19.00;;;25.90;2201.60;;;;;;5019743;28;20021;-88
2022/01/12 01:05:24;;;;;;;46.47;27.40;;;25.80;2201.60;;;;;;5019642;28;20017;-88
2022/01/12 01:07:51;;;;;;;47.17;23.98;;;25.90;2201.60;;;;;;5018677;28;20112;-91
2022/01/12 01:10:29;;;;;;;41.78;25.08;;;26.00;2201.60;;;;;;5019571;28;20025;-89
2022/01/12 01:12:55;;;;;;;56.25;25.02;;;26.00;2201.60;;;;;;5019703;28;20022;-87
2022/01/12 01:15:39;;;;;;;48.22;24.13;;;26.00;2201.60;;;;;;5019473;28;20021;-87
2022/01/12 01:26:41;;;;;;;65.63;33.38;;;25.90;2201.60;;;;;;5016425;28;20088;-87
2022/01/12 01:29:11;;;;;;;35.08;19.33;;;25.90;2201.60;;;;;;5036549;28;20037;-89
2022/01/12 01:31:38;;;;;;;61.47;34.05;;;25.80;2201.60;;;;;;5018539;28;20116;-87
2022/01/12 01:34:11;;;;;;;72.38;39.05;;;25.80;2201.60;;;;;;5018731;28;20381;-89
2022/01/12 01:36:40;;;;;;;68.32;35.35;;;25.80;2201.60;;;;;;5018761;28;20108;-90
2022/01/12 01:39:11;;;;;;;77.43;40.53;;;25.90;2201.60;;;;;;5018756;28;20036;-88
2022/01/12 01:41:40;;;;;;;59.53;35.33;;;25.80;2201.60;;;;;;5018718;28;20465;-88
2022/01/12 01:54:50;;;;;;;36.10;22.20;;;25.80;2201.60;;;;;;5036367;28;20112;-89
2022/01/12 01:57:17;;;;;;;32.63;19.33;;;25.80;2201.60;;;;;;5018295;28;20049;-88
2022/01/12 01:59:43;;;;;;;26.73;16.73;;;25.80;2201.60;;;;;;5019098;28;20032;-85
2022/01/12 02:02:09;;;;;;;31.77;18.88;;;25.80;2201.60;;;;;;5018499;28;20017;-89
2022/01/12 02:04:34;;;;;;;42.85;24.48;;;25.80;2201.60;;;;;;5018671;28;20021;-87
2022/01/12 02:07:00;;;;;;;32.53;19.33;;;25.80;2201.60;;;;;;5018472;28;20446;-88
2022/01/12 02:09:26;;;;;;;28.45;17.13;;;25.70;2201.60;;;;;;5018354;28;20415;-89
2022/01/12 02:11:53;;;;;;;51.28;24.48;;;25.70;2201.60;;;;;;5018446;28;20026;-87
2022/01/12 02:14:20;;;;;;;56.97;28.27;;;25.80;2201.60;;;;;;5017847;28;20021;-88
2022/01/12 02:16:57;;;;;;;31.63;18.95;;;25.70;2201.60;;;;;;5018145;28;20049;-88
2022/01/12 02:36:16;;;;;;;32.22;18.63;;;25.60;2201.60;;;;;;5035487;28;20047;-88
2022/01/12 02:41:26;;;;;;;29.77;17.45;;;25.60;2201.60;;;;;;5035387;28;20416;-89
2022/01/12 02:54:43;;;;;;;38.38;22.25;;;25.90;2201.60;;;;;;5035204;28;20029;-87
2022/01/12 02:57:09;;;;;;;30.42;16.85;;;25.70;2201.60;;;;;;5017605;28;20415;-88
2022/01/12 02:59:36;;;;;;;28.95;16.42;;;26.00;2201.60;;;;;;5017515;28;20575;-87
2022/01/12 03:02:28;;;;;;;30.25;17.23;;;25.80;2201.60;;;;;;5017337;28;20059;-90
2022/01/12 03:05:46;;;;;;;35.42;21.42;;;25.90;2201.60;;;;;;5017450;28;20028;-87
2022/01/12 03:07:42;;;;;;;40.75;25.33;;;25.80;2201.60;;;;;;5023843;28;20386;-86
2022/01/12 03:10:10;;;;;;;32.33;20.75;;;25.90;2201.60;;;;;;5017667;28;20026;-86
2022/01/12 03:12:38;;;;;;;36.90;24.42;;;25.80;2201.60;;;;;;5017240;28;20071;-88
2022/01/12 03:15:05;;;;;;;50.30;28.63;;;25.80;2201.60;;;;;;5017265;28;20025;-88
2022/01/12 03:17:31;;;;;;;33.53;19.45;;;25.80;2201.60;;;;;;5017279;28;20033;-86
2022/01/12 03:19:56;;;;;;;35.53;20.25;;;25.80;2201.60;;;;;;5017365;28;20067;-87
2022/01/12 03:22:22;;;;;;;31.48;19.75;;;25.80;2201.60;;;;;;5017012;28;20532;-86
2022/01/12 03:24:49;;;;;;;44.45;23.30;;;25.90;2201.60;;;;;;5017682;28;20018;-87
2022/01/12 03:27:16;;;;;;;49.67;25.63;;;25.90;2201.60;;;;;;5019127;28;20025;-89
2022/01/12 03:29:44;;;;;;;43.75;24.73;;;25.90;2201.60;;;;;;5021358;28;20029;-86
2022/01/12 03:32:12;;;;;;;47.03;25.38;;;26.00;2201.60;;;;;;5018296;28;20031;-87
2022/01/12 03:34:42;;;;;;;40.42;22.63;;;26.00;2201.60;;;;;;5016904;28;20052;-87
2022/01/12 03:39:43;;;;;;;39.38;23.38;;;26.10;2201.60;;;;;;5034560;28;20104;-88
2022/01/12 03:42:09;;;;;;;38.63;21.70;;;26.20;2201.60;;;;;;5016677;28;20026;-86
2022/01/12 03:44:35;;;;;;;34.38;21.20;;;26.10;2201.60;;;;;;5016788;28;20033;-86
2022/01/12 03:47:01;;;;;;;38.00;21.83;;;26.10;2201.60;;;;;;5016919;28;20021;-87
2022/01/12 03:49:27;;;;;;;35.30;20.48;;;26.00;2201.60;;;;;;5016700;28;20055;-88
2022/01/12 03:51:53;;;;;;;34.20;20.80;;;26.00;2201.60;;;;;;5016750;28;20017;-89
2022/01/12 03:54:20;;;;;;;32.53;18.75;;;26.00;2201.60;;;;;;5017016;28;20018;-90
2022/01/12 03:56:46;;;;;;;37.10;22.73;;;26.10;2201.60;;;;;;5021115;28;20104;-89
2022/01/12 03:59:12;;;;;;;37.45;22.95;;;26.10;2201.60;;;;;;5020972;28;20033;-88
2022/01/12 04:01:38;;;;;;;38.28;22.45;;;26.00;2201.60;;;;;;5020843;28;20022;-88
2022/01/12 04:04:08;;;;;;;37.97;21.52;;;26.00;2201.60;;;;;;5020803;28;20029;-86
2022/01/12 04:09:19;;;;;;;35.13;20.52;;;26.00;2201.60;;;;;;5038311;28;20032;-90
2022/01/12 04:11:45;;;;;;;34.65;22.63;;;26.10;2201.60;;;;;;5020881;28;20021;-89
2022/01/12 04:14:12;;;;;;;38.08;23.15;;;26.20;2201.60;;;;;;5020606;28;20056;-88
2022/01/12 04:16:39;;;;;;;37.00;22.23;;;26.20;2201.60;;;;;;5020230;28;20030;-88
2022/01/12 04:19:05;;;;;;;41.60;25.73;;;26.20;2201.60;;;;;;5020395;28;20063;-89
2022/01/12 04:21:34;;;;;;;46.88;27.90;;;26.20;2201.60;;;;;;5020525;28;20025;-87
2022/01/12 04:24:00;;;;;;;32.55;20.92;;;26.10;2201.60;;;;;;5020276;28;20026;-91
2022/01/12 04:26:30;;;;;;;42.47;23.45;;;26.10;2201.60;;;;;;5020389;28;20018;-88
2022/01/12 04:28:56;;;;;;;34.10;20.65;;;26.20;2201.60;;;;;;5020101;28;20075;-87
2022/01/12 04:31:22;;;;;;;33.38;20.70;;;26.00;2201.60;;;;;;5019989;28;20033;-89
2022/01/12 04:33:48;;;;;;;35.83;21.55;;;26.10;2201.60;;;;;;5019771;28;20045;-88
2022/01/12 04:36:16;;;;;;;32.97;20.45;;;26.10;2201.60;;;;;;5020128;28;20025;-89
2022/01/12 04:38:44;;;;;;;34.15;19.48;;;26.10;2201.60;;;;;;5019955;28;20120;-89
2022/01/12 04:41:11;;;;;;;32.90;18.65;;;26.10;2201.60;;;;;;5019975;28;20022;-89
2022/01/12 04:43:40;;;;;;;40.40;21.05;;;26.10;2201.60;;;;;;5020118;28;20116;-87
2022/01/12 04:48:51;;;;;;;39.92;22.67;;;26.00;2201.60;;;;;;5037448;28;20079;-87
2022/01/12 04:51:18;;;;;;;37.83;20.40;;;26.00;2201.60;;;;;;5019824;28;20034;-88
2022/01/12 04:53:44;;;;;;;44.10;26.95;;;26.10;2201.60;;;;;;5019653;28;20071;-89
2022/01/12 04:56:10;;;;;;;50.03;29.88;;;26.00;2201.60;;;;;;5019905;28;20476;-88
2022/01/12 04:58:36;;;;;;;69.95;37.70;;;26.00;2201.60;;;;;;5019748;28;20056;-89
2022/01/12 05:01:21;;;;;;;61.25;35.33;;;25.90;2201.60;;;;;;5019682;28;20477;-88
2022/01/12 05:06:45;;;;;;;59.97;33.25;;;25.80;2201.60;;;;;;5036847;28;20068;-87
2022/01/12 05:14:24;;;;;;;45.85;25.38;;;25.70;2201.60;;;;;;5037147;28;20056;-88
2022/01/12 05:16:50;;;;;;;43.72;24.77;;;25.80;2201.60;;;;;;5019375;28;20044;-88
2022/01/12 05:19:16;;;;;;;52.20;30.88;;;25.90;2201.60;;;;;;5018975;28;20021;-87
2022/01/12 05:21:41;;;;;;;44.65;25.08;;;25.90;2201.60;;;;;;5019338;28;20022;-87
2022/01/12 05:24:10;;;;;;;31.80;19.17;;;25.80;2201.60;;;;;;5019325;28;20072;-87
2022/01/12 05:26:36;;;;;;;44.75;28.35;;;25.90;2201.60;;;;;;5019045;28;20444;-87
2022/01/12 05:29:03;;;;;;;59.75;35.92;;;25.80;2201.60;;;;;;5019031;28;20057;-88
2022/01/12 05:31:28;;;;;;;47.03;26.63;;;26.40;2201.60;;;;;;5019060;28;20033;-88
2022/01/12 05:33:58;;;;;;;53.03;30.38;;;25.80;2201.60;;;;;;5018488;28;20156;-88
2022/01/12 05:36:25;;;;;;;67.15;36.85;;;25.80;2201.60;;;;;;5019042;28;20021;-88
2022/01/12 05:38:50;;;;;;;57.42;30.70;;;25.70;2201.60;;;;;;5019147;28;20083;-87
2022/01/12 05:41:16;;;;;;;48.05;25.48;;;25.60;2201.60;;;;;;5018756;28;20104;-88
2022/01/12 05:43:45;;;;;;;39.17;22.65;;;25.70;2201.60;;;;;;5018775;28;20025;-86
2022/01/12 05:46:13;;;;;;;49.13;25.23;;;25.60;2201.60;;;;;;5037957;28;20017;-89
2022/01/12 05:51:26;;;;;;;73.57;39.30;;;0.90;2201.60;;;;;;5036629;28;20115;-89
2022/01/12 05:53:52;;;;;;;52.72;27.33;;;0.90;2201.60;;;;;;5018812;28;20682;-87
2022/01/12 05:56:18;;;;;;;52.70;27.92;;;0.90;2201.60;;;;;;5018357;28;20025;-89
2022/01/12 05:58:44;;;;;;;47.13;24.50;;;0.80;2201.60;;;;;;5018728;28;20128;-90
2022/01/12 06:01:10;;;;;;;57.83;31.70;;;0.80;2201.60;;;;;;5018332;28;20025;-88
2022/01/12 06:03:36;;;;;;;59.13;35.25;;;0.80;2201.60;;;;;;5018455;28;20022;-89
2022/01/12 06:06:02;;;;;;;52.00;29.90;;;0.70;2201.60;;;;;;5018569;28;20350;-87
2022/01/12 06:08:28;;;;;;;74.95;43.03;;;0.80;2201.60;;;;;;5035883;28;20445;-89
2022/01/12 06:10:54;;;;;;;89.35;50.70;;;0.80;2201.60;;;;;;5018539;28;20056;-88
2022/01/12 06:13:19;;;;;;;103.63;51.65;;;0.80;2201.60;;;;;;5018437;28;20026;-87
2022/01/12 06:15:45;;;;;;;99.57;57.17;;;0.70;2201.60;;;;;;5018116;28;20466;-90
2022/01/12 06:18:11;;;;;;;109.97;57.53;;;0.70;2201.60;;;;;;5017428;28;20025;-89
2022/01/12 06:20:37;;;;;;;116.50;65.63;;;0.70;2201.60;;;;;;5018368;28;20022;-86
2022/01/12 06:23:03;;;;;;;126.22;69.72;;;0.60;2201.60;;;;;;5018144;28;20025;-89
2022/01/12 06:25:29;;;;;;;95.63;56.15;;;0.80;2201.60;;;;;;5018009;28;20017;-88
2022/01/12 06:27:58;;;;;;;85.20;44.70;;;0.80;2201.60;;;;;;5018065;28;20508;-85
2022/01/12 06:32:53;;;;;;;87.35;47.60;;;0.80;2201.60;;;;;;5035626;28;20021;-87
2022/01/12 06:35:19;;;;;;;69.57;38.33;;;0.90;2201.60;;;;;;5014342;28;20120;-90
2022/01/12 06:37:45;;;;;;;74.25;38.03;;;0.90;2201.60;;;;;;5014338;28;20477;-86
2022/01/12 06:40:13;;;;;;;64.18;35.08;;;0.90;2201.60;;;;;;5014504;28;20018;-87
2022/01/12 06:42:39;;;;;;;51.53;29.02;;;25.60;2201.60;;;;;;5014592;28;20069;-85
2022/01/12 06:45:06;;;;;;;45.72;24.45;;;0.60;2201.60;;;;;;5014308;28;20404;-87
2022/01/12 06:47:32;;;;;;;49.78;27.77;;;25.60;2201.60;;;;;;5014335;28;20029;-86
2022/01/12 06:49:57;;;;;;;49.53;26.45;;;25.60;2201.60;;;;;;5014326;28;20037;-88
2022/01/12 06:52:23;;;;;;;44.45;23.88;;;25.60;2201.60;;;;;;5014187;28;20509;-88
2022/01/12 06:54:49;;;;;;;59.53;33.45;;;25.70;2201.60;;;;;;5014020;28;20108;-89
2022/01/12 06:57:17;;;;;;;41.58;24.17;;;25.70;2201.60;;;;;;5013933;28;20049;-86
2022/01/12 06:59:43;;;;;;;40.40;25.15;;;25.70;2201.60;;;;;;5014205;28;20030;-87
2022/01/12 07:02:08;;;;;;;43.60;26.10;;;25.80;2201.60;;;;;;5014060;28;20421;-87
2022/01/12 07:04:35;;;;;;;55.10;29.35;;;25.90;2201.60;;;;;;5013966;28;20022;-88
2022/01/12 07:07:02;;;;;;;146.45;72.75;;;25.90;2201.60;;;;;;5014033;28;20113;-87
2022/01/12 07:09:28;;;;;;;140.10;73.35;;;25.70;2201.60;;;;;;5014070;28;20033;-88
2022/01/12 07:11:54;;;;;;;126.13;76.68;;;25.70;2201.60;;;;;;5013852;28;20071;-90
2022/01/12 07:14:21;;;;;;;157.27;93.72;;;25.70;2201.60;;;;;;5014098;28;20025;-87
2022/01/12 07:16:47;;;;;;;234.93;142.88;;;25.60;2201.60;;;;;;5014004;28;20087;-88
2022/01/12 07:19:13;;;;;;;151.02;95.80;;;25.60;2201.60;;;;;;5013987;28;20029;-88
2022/01/12 07:21:39;;;;;;;145.30;88.00;;;25.70;2201.60;;;;;;5014023;28;20025;-87
2022/01/12 07:24:05;;;;;;;163.95;105.40;;;25.80;2201.60;;;;;;5013798;28;20153;-88
2022/01/12 07:26:31;;;;;;;172.00;108.93;;;25.70;2201.60;;;;;;5013838;28;20022;-88
2022/01/12 07:28:57;;;;;;;143.70;91.88;;;0.90;2201.60;;;;;;5013521;28;20037;-85
2022/01/12 07:31:23;;;;;;;141.80;85.20;;;25.70;2201.60;;;;;;5014016;28;20061;-85
2022/01/12 07:33:50;;;;;;;136.07;82.45;;;25.90;2201.60;;;;;;5013171;28;20108;-85
2022/01/12 07:36:17;;;;;;;124.90;72.75;;;26.00;2201.60;;;;;;5013723;28;20032;-86
2022/01/12 07:38:43;;;;;;;124.43;79.03;;;26.00;2201.60;;;;;;5013742;28;20022;-89
2022/01/12 07:41:09;;;;;;;156.90;103.55;;;25.70;2201.60;;;;;;5013601;28;20022;-86
2022/01/12 07:43:35;;;;;;;128.82;79.15;;;25.90;2201.60;;;;;;5013570;28;20045;-87
2022/01/12 07:46:01;;;;;;;114.82;72.35;;;26.00;2201.60;;;;;;5013608;28;20061;-86
2022/01/12 07:48:27;;;;;;;161.35;90.20;;;26.10;2201.60;;;;;;5013166;28;20117;-85
2022/01/12 07:50:52;;;;;;;136.05;84.07;;;25.90;2201.60;;;;;;5013488;28;20118;-87
2022/01/12 07:53:18;;;;;;;118.47;71.10;;;25.90;2201.60;;;;;;5013353;28;20032;-87
2022/01/12 07:55:44;;;;;;;89.82;52.72;;;25.90;2201.60;;;;;;5013471;28;20029;-87
2022/01/12 07:58:11;;;;;;;93.97;59.00;;;25.70;2201.60;;;;;;5013415;28;20464;-86
2022/01/12 08:00:37;;;;;;;89.55;54.92;;;25.70;2201.60;;;;;;5013261;28;20026;-85
2022/01/12 08:03:03;;;;;;;100.55;62.10;;;25.70;2201.60;;;;;;5013582;28;20136;-88
2022/01/12 08:05:29;;;;;;;101.18;62.10;;;25.70;2201.60;;;;;;5013478;28;20033;-88
2022/01/12 08:07:55;;;;;;;103.53;65.85;;;25.80;2201.60;;;;;;5013146;28;20026;-86
2022/01/12 08:10:22;;;;;;;116.95;69.43;;;25.90;2201.60;;;;;;5013326;28;20029;-87
2022/01/12 08:12:47;;;;;;;128.18;80.15;;;25.90;2201.60;;;;;;5013382;28;20053;-86
2022/01/12 08:15:14;;;;;;;125.80;77.78;;;26.00;2201.60;;;;;;5013037;28;20446;-86
2022/01/12 08:17:43;;;;;;;129.02;76.30;;;26.10;2201.60;;;;;;5013534;28;20038;-87
2022/01/12 08:20:12;;;;;;;118.07;76.07;;;26.00;2201.60;;;;;;5013767;28;20057;-84
2022/01/12 08:22:38;;;;;;;98.53;56.60;;;26.10;2201.60;;;;;;5013058;28;20022;-86
2022/01/12 08:25:06;;;;;;;125.30;70.75;;;26.20;2201.60;;;;;;5013235;28;20026;-88
2022/01/12 08:27:32;;;;;;;90.47;55.22;;;26.10;2201.60;;;;;;5013046;28;20029;-86
2022/01/12 08:30:02;;;;;;;100.72;56.25;;;26.20;2201.60;;;;;;5013115;28;20382;-86
2022/01/12 08:32:28;;;;;;;105.93;61.50;;;26.20;2201.60;;;;;;5014277;28;20018;-83
2022/01/12 08:34:55;;;;;;;117.32;75.80;;;26.50;2201.60;;;;;;5012614;28;20053;-88
2022/01/12 08:37:21;;;;;;;98.03;63.65;;;26.40;2201.60;;;;;;5012921;28;20079;-88
2022/01/12 08:39:47;;;;;;;93.07;53.97;;;26.40;2201.60;;;;;;5012993;28;20025;-86
2022/01/12 08:42:13;;;;;;;80.65;47.13;;;26.50;2201.60;;;;;;5015661;28;20045;-86
2022/01/12 08:44:39;;;;;;;66.20;37.22;;;26.40;2201.60;;;;;;5016698;28;20051;-88
2022/01/12 08:47:05;;;;;;;46.50;25.05;;;26.40;2201.60;;;;;;5016615;28;20032;-88
2022/01/12 08:49:31;;;;;;;73.80;40.63;;;26.40;2201.60;;;;;;5016469;28;20030;-88
2022/01/12 08:51:57;;;;;;;156.88;93.82;;;26.50;2201.60;;;;;;5025090;28;20018;-84
2022/01/12 08:54:23;;;;;;;131.73;76.50;;;26.40;2201.60;;;;;;5039803;28;20041;-82
2022/01/12 08:56:49;;;;;;;83.93;46.38;;;26.50;2201.60;;;;;;5016761;28;20022;-86
2022/01/12 08:59:17;;;;;;;97.22;53.90;;;26.50;2201.60;;;;;;5016357;28;20472;-87
2022/01/12 09:01:43;;;;;;;85.93;48.88;;;26.50;2201.60;;;;;;5016324;28;20072;-87
2022/01/12 09:04:09;;;;;;;86.85;52.35;;;26.50;2201.60;;;;;;5016140;28;20054;-87
2022/01/12 09:06:35;;;;;;;87.63;51.35;;;51.20;2227.20;;;;;;5016201;28;20022;-84
2022/01/12 09:09:02;;;;;;;120.13;69.97;;;51.20;2227.20;;;;;;5016002;28;20080;-86
2022/01/12 09:11:28;;;;;;;114.45;68.32;;;51.20;2227.20;;;;;;5016841;28;20397;-88
2022/01/12 09:13:54;;;;;;;112.97;69.25;;;51.30;2227.20;;;;;;5015997;28;20040;-83
2022/01/12 09:16:20;;;;;;;125.85;73.40;;;51.20;2227.20;;;;;;5015973;28;20041;-85
2022/01/12 09:18:46;;;;;;;124.38;74.07;;;26.50;2201.60;;;;;;5015597;28;20053;-86
2022/01/12 09:21:12;;;;;;;123.15;79.70;;;51.20;2227.20;;;;;;5016061;28;20050;-85
2022/01/12 09:23:39;;;;;;;99.65;58.90;;;51.20;2227.20;;;;;;5015908;28;20022;-87
2022/01/12 09:26:05;;;;;;;90.25;51.38;;;51.30;2227.20;;;;;;5015762;28;20028;-85
2022/01/12 09:28:32;;;;;;;77.90;47.72;;;51.20;2227.20;;;;;;5015660;28;20026;-87
2022/01/12 09:30:58;;;;;;;92.03;51.97;;;51.20;2227.20;;;;;;5015790;28;20428;-86
2022/01/12 09:33:24;;;;;;;95.90;51.25;;;51.30;2227.20;;;;;;5016938;28;20022;-84
2022/01/12 09:35:53;;;;;;;63.80;39.33;;;51.30;2227.20;;;;;;5018901;28;20021;-86
2022/01/12 09:38:19;;;;;;;66.18;38.53;;;51.30;2227.20;;;;;;5018827;28;20117;-85
2022/01/12 09:40:46;;;;;;;58.47;34.97;;;51.30;2227.20;;;;;;5019015;28;20092;-84
2022/01/12 09:43:13;;;;;;;96.65;67.25;;;51.30;2227.20;;;;;;5018742;28;20108;-87
2022/01/12 09:45:43;;;;;;;68.00;42.10;;;51.20;2227.20;;;;;;5018605;28;20021;-86
2022/01/12 09:48:10;;;;;;;151.02;92.88;;;51.40;2227.20;;;;;;5018628;28;20475;-86
2022/01/12 09:50:39;;;;;;;149.38;81.90;;;51.20;2227.20;;;;;;5016775;28;20041;-88
2022/01/12 09:53:05;;;;;;;104.90;54.85;;;51.20;2227.20;;;;;;5017831;28;20021;-87
2022/01/12 09:55:31;;;;;;;79.80;46.63;;;51.30;2227.20;;;;;;5018065;28;20022;-87
2022/01/12 09:57:57;;;;;;;89.22;49.47;;;51.40;2227.20;;;;;;5017792;28;20032;-82
2022/01/12 10:00:25;;;;;;;77.32;39.33;;;51.30;2227.20;;;;;;5017811;28;20208;-89
2022/01/12 10:02:51;;;;;;;80.15;38.80;;;51.20;2227.20;;;;;;5017920;28;20032;-87
2022/01/12 10:05:17;;;;;;;104.20;53.33;;;26.50;2201.60;;;;;;5017717;28;20033;-84
2022/01/12 10:07:43;;;;;;;79.30;40.60;;;26.50;2201.60;;;;;;5017378;28;20025;-83
2022/01/12 10:10:14;;;;;;;72.43;41.00;;;26.50;2201.60;;;;;;5017656;28;20468;-86
2022/01/12 10:12:54;;;;;;;78.35;41.42;;;26.50;2201.60;;;;;;5017462;28;20021;-80
2022/01/12 10:15:21;;;;;;;76.95;46.70;;;26.50;2201.60;;;;;;5017033;28;20049;-81
2022/01/12 10:17:47;;;;;;;84.03;41.83;;;26.50;2201.60;;;;;;5017345;28;20033;-83
2022/01/12 10:20:19;;;;;;;77.55;44.58;;;26.40;2201.60;;;;;;5011297;28;20513;-84
2022/01/12 10:23:05;;;;;;;82.50;50.20;;;26.30;2201.60;;;;;;4997483;28;20026;-83
2022/01/12 10:25:32;;;;;;;70.88;41.85;;;26.30;2201.60;;;;;;4997795;28;20446;-84
2022/01/12 10:28:10;;;;;;;52.50;33.88;;;26.30;2201.60;;;;;;4996453;28;20087;-83
2022/01/12 10:30:37;;;;;;;50.40;32.72;;;26.20;2201.60;;;;;;5003134;28;20117;-85
2022/01/12 10:33:06;;;;;;;54.22;33.33;;;26.00;2201.60;;;;;;5017313;28;20084;-85
2022/01/12 10:35:36;;;;;;;51.17;31.80;;;26.00;2201.60;;;;;;4998980;28;20088;-90
2022/01/12 10:38:12;;;;;;;49.53;32.85;;;26.10;2201.60;;;;;;4997224;28;20026;-84
2022/01/12 10:40:47;;;;;;;61.55;39.67;;;26.10;2201.60;;;;;;4996870;28;20060;-86
2022/01/12 10:43:39;;;;;;;54.90;34.20;;;26.10;2201.60;;;;;;4996433;28;20045;-84
2022/01/12 10:46:16;;;;;;;62.53;37.95;;;26.20;2201.60;;;;;;4996679;28;20029;-84
2022/01/12 10:48:44;;;;;;;61.92;37.95;;;26.20;2201.60;;;;;;5014431;28;20080;-85
2022/01/12 10:51:13;;;;;;;45.70;28.83;;;26.20;2201.60;;;;;;5000163;28;20076;-91
2022/01/12 10:53:39;;;;;;;39.65;25.00;;;26.10;2201.60;;;;;;5016634;28;20030;-87
2022/01/12 10:56:11;;;;;;;46.75;29.15;;;26.10;2201.60;;;;;;5012269;28;20025;-85
2022/01/12 10:58:40;;;;;;;49.15;34.30;;;26.20;2201.60;;;;;;5014026;28;20053;-87
2022/01/12 11:01:07;;;;;;;50.25;29.77;;;26.20;2201.60;;;;;;5005271;28;20118;-87
2022/01/12 11:03:33;;;;;;;43.08;25.08;;;26.20;2201.60;;;;;;5016139;28;20028;-86
2022/01/12 11:06:00;;;;;;;55.17;33.00;;;26.50;2201.60;;;;;;5016511;28;20053;-85
2022/01/12 11:08:27;;;;;;;44.50;29.63;;;26.30;2201.60;;;;;;5004039;28;20030;-80
2022/01/12 11:10:55;;;;;;;59.00;33.42;;;26.20;2201.60;;;;;;4997209;28;20028;-85
2022/01/12 11:13:21;;;;;;;55.05;32.70;;;26.30;2201.60;;;;;;4997202;28;20120;-82
2022/01/12 11:15:48;;;;;;;46.55;28.73;;;26.30;2201.60;;;;;;4997134;28;20068;-84
2022/01/12 11:18:15;;;;;;;46.70;28.42;;;26.20;2201.60;;;;;;4997019;28;20030;-84
2022/01/12 11:20:44;;;;;;;45.55;27.20;;;26.20;2201.60;;;;;;4997007;28;20049;-82
2022/01/12 11:23:13;;;;;;;41.58;25.02;;;26.20;2201.60;;;;;;4996943;28;20120;-82
2022/01/12 11:25:50;;;;;;;43.55;26.88;;;26.20;2201.60;;;;;;4996743;28;20029;-88
2022/01/12 11:28:23;;;;;;;55.50;33.25;;;26.10;2201.60;;;;;;4996888;28;20045;-89
2022/01/12 11:30:51;;;;;;;50.60;27.63;;;26.10;2201.60;;;;;;4997006;28;20098;-85
2022/01/12 11:33:33;;;;;;;42.00;24.90;;;26.10;2201.60;;;;;;4996966;28;20053;-86
2022/01/12 11:36:12;;;;;;;28.15;17.63;;;26.00;2201.60;;;;;;4996989;28;20034;-85
2022/01/12 11:38:38;;;;;;;29.75;16.50;;;26.10;2201.60;;;;;;5014476;28;20491;-88
2022/01/12 11:41:37;;;;;;;25.58;15.93;;;26.00;2201.60;;;;;;4996985;28;20029;-85
2022/01/12 11:44:20;;;;;;;43.08;26.77;;;26.10;2201.60;;;;;;4954809;28;20076;-85
2022/01/12 11:46:45;;;;;;;26.55;15.60;;;26.10;2201.60;;;;;;4997102;28;20439;-82
2022/01/12 11:49:23;;;;;;;24.17;15.00;;;26.00;2201.60;;;;;;4996877;28;20120;-85
2022/01/12 11:51:49;;;;;;;31.85;18.52;;;25.90;2201.60;;;;;;4996722;28;20033;-89
2022/01/12 11:54:18;;;;;;;35.03;22.00;;;25.90;2201.60;;;;;;4997019;28;20018;-83
2022/01/12 11:56:59;;;;;;;28.85;18.15;;;26.00;2201.60;;;;;;4996967;28;20021;-85
2022/01/12 11:59:27;;;;;;;28.45;17.65;;;25.80;2201.60;;;;;;4996739;28;20060;-87
2022/01/12 12:02:09;;;;;;;19.98;13.63;;;25.80;2201.60;;;;;;4996735;28;20029;-85
2022/01/12 12:04:35;;;;;;;34.17;24.25;;;25.80;2201.60;;;;;;4996643;28;20022;-84
2022/01/12 12:07:08;;;;;;;32.25;22.20;;;25.60;2201.60;;;;;;4996692;28;20469;-86
2022/01/12 12:09:42;;;;;;;35.30;23.83;;;25.80;2201.60;;;;;;4996546;28;20029;-84
2022/01/12 12:12:17;;;;;;;26.73;16.00;;;25.80;2201.60;;;;;;4996450;28;20033;-83
2022/01/12 12:14:53;;;;;;;30.15;22.20;;;25.80;2201.60;;;;;;4996665;28;20370;-86
2022/01/12 12:17:21;;;;;;;24.25;15.85;;;25.80;2201.60;;;;;;4999802;28;20029;-85
2022/01/12 12:19:48;;;;;;;22.02;14.95;;;25.70;2201.60;;;;;;5000348;28;20022;-81
2022/01/12 12:22:19;;;;;;;24.75;16.85;;;25.70;2201.60;;;;;;5000424;28;20022;-86
2022/01/12 12:24:51;;;;;;;30.98;20.88;;;0.90;2201.60;;;;;;5001235;28;20057;-88
2022/01/12 12:30:40;;;;;;;39.55;22.02;;;0.90;2201.60;;;;;;5018231;28;20103;-88
2022/01/12 12:33:12;;;;;;;37.10;25.25;;;0.90;2201.60;;;;;;5000392;28;20022;-86
2022/01/12 12:35:41;;;;;;;29.85;20.00;;;0.90;2201.60;;;;;;5010011;28;20042;-86
2022/01/12 12:38:09;;;;;;;37.38;25.30;;;0.90;2201.60;;;;;;5021717;28;20081;-86
2022/01/12 12:40:36;;;;;;;29.05;19.17;;;0.90;2201.60;;;;;;4997800;28;20033;-89
2022/01/12 12:43:34;;;;;;;33.05;20.40;;;0.80;2201.60;;;;;;4997899;28;20026;-84
2022/01/12 12:46:11;;;;;;;37.10;23.55;;;0.80;2201.60;;;;;;4998031;28;20057;-86
2022/01/12 12:48:39;;;;;;;44.88;30.10;;;0.90;2201.60;;;;;;4997172;28;20026;-89
2022/01/12 12:51:08;;;;;;;33.38;22.13;;;0.80;2201.60;;;;;;4996787;28;20077;-89
2022/01/12 12:53:47;;;;;;;36.55;19.90;;;0.70;2201.60;;;;;;4996617;28;20018;-88
2022/01/12 12:56:19;;;;;;;34.53;26.15;;;0.70;2201.60;;;;;;4997767;28;20366;-86
2022/01/12 12:58:53;;;;;;;22.90;19.35;;;0.60;2201.60;;;;;;4996437;28;20045;-89
2022/01/12 13:01:21;;;;;;;33.53;19.60;;;0.70;2201.60;;;;;;4996716;28;20092;-84
2022/01/12 13:03:54;;;;;;;25.48;15.98;;;0.70;2201.60;;;;;;4996365;28;20076;-88
2022/01/12 13:06:30;;;;;;;28.50;21.60;;;0.60;2201.60;;;;;;4996239;28;20058;-87
2022/01/12 13:09:04;;;;;;;68.20;30.00;;;0.60;2201.60;;;;;;4996484;28;20076;-86
2022/01/12 13:11:35;;;;;;;49.90;28.88;;;0.80;2201.60;;;;;;4996693;28;20026;-87
2022/01/12 13:14:04;;;;;;;57.85;29.58;;;0.90;2201.60;;;;;;4996508;28;20366;-86
2022/01/12 13:16:30;;;;;;;42.75;25.13;;;25.60;2201.60;;;;;;4996625;28;20494;-86
2022/01/12 13:19:05;;;;;;;35.72;19.17;;;25.60;2201.60;;;;;;4997797;28;20030;-88
2022/01/12 13:21:37;;;;;;;57.05;30.95;;;25.60;2201.60;;;;;;4996588;28;20026;-87
2022/01/12 13:24:03;;;;;;;46.95;29.10;;;25.60;2201.60;;;;;;4996630;28;20026;-87
2022/01/12 13:26:34;;;;;;;42.17;25.55;;;25.70;2201.60;;;;;;4995838;28;20034;-86
2022/01/12 13:29:10;;;;;;;30.50;20.90;;;25.70;2201.60;;;;;;4996288;28;20033;-88
2022/01/12 13:31:39;;;;;;;39.08;24.20;;;25.70;2201.60;;;;;;4997518;28;20050;-88
2022/01/12 13:34:12;;;;;;;27.38;16.95;;;25.60;2201.60;;;;;;4997523;28;20477;-88